Terminal Aerodrome Forecast
Issued by NWS

Home | Current Version | Previous Version | Text Only | Print | Product List | Glossary On
Versions: 1 2 3 4 5 6 7 8 9 10 11 12
076
FTUS45 KTFX 281741
TAFCTB
TAF
KCTB 281741Z 2818/2918 VRB05KT P6SM FEW070 SCT100
     FM282200 26005KT P6SM VCTS BKN070CB
     FM290300 VRB05KT P6SM SCT080=

USA.gov is the U.S. government's official web portal to all federal, state and local government web resources and services.